createdAt,value
2023-07-25T00:00:41.064Z,9.43
2023-07-25T00:03:07.825Z,8.13
2023-07-25T00:05:35.642Z,10.23
2023-07-25T00:10:49.667Z,7.10
2023-07-25T00:13:23.550Z,7.30
2023-07-25T00:15:54.146Z,8.70
2023-07-25T00:18:47.082Z,10.70
2023-07-25T00:21:16.405Z,8.95
2023-07-25T00:24:24.808Z,9.32
2023-07-25T00:27:06.723Z,7.55
2023-07-25T00:29:39.669Z,11.70
2023-07-25T00:32:19.997Z,10.90
2023-07-25T00:34:46.894Z,9.60
2023-07-25T00:37:13.806Z,9.35
2023-07-25T00:39:52.126Z,11.35
2023-07-25T00:42:18.840Z,13.82
2023-07-25T00:45:01.476Z,10.20
2023-07-25T00:47:28.447Z,12.68
2023-07-25T00:50:19.470Z,11.32
2023-07-25T00:53:01.520Z,12.13
2023-07-25T00:55:38.138Z,13.13
2023-07-25T00:58:57.573Z,11.73
2023-07-25T01:01:16.621Z,14.27
2023-07-25T01:04:19.001Z,10.60
2023-07-25T01:06:43.105Z,11.23
2023-07-25T01:09:13.965Z,11.45
2023-07-25T01:12:01.270Z,12.75
2023-07-25T01:14:56.696Z,13.32
2023-07-25T01:17:34.482Z,11.23
2023-07-25T01:20:32.753Z,14.05
2023-07-25T01:23:05.821Z,13.77
2023-07-25T01:25:42.392Z,12.80
2023-07-25T01:28:23.502Z,12.10
2023-07-25T01:30:50.290Z,10.05
2023-07-25T01:33:17.184Z,12.43
2023-07-25T01:35:59.125Z,11.25
2023-07-25T01:38:38.945Z,10.43
2023-07-25T01:41:05.871Z,9.82
2023-07-25T01:43:34.188Z,10.45
2023-07-25T01:46:10.141Z,10.70
2023-07-25T01:48:39.354Z,11.85
2023-07-25T01:51:31.637Z,14.93
2023-07-25T01:54:04.789Z,13.05
2023-07-25T01:56:31.593Z,10.82
2023-07-25T01:58:59.477Z,12.00
2023-07-25T02:01:31.250Z,9.65
2023-07-25T02:04:01.411Z,12.65
2023-07-25T02:06:28.245Z,13.40
2023-07-25T02:09:00.041Z,11.95
2023-07-25T02:11:26.941Z,9.77
2023-07-25T02:13:53.676Z,18.40
2023-07-25T02:16:23.152Z,14.10
2023-07-25T02:18:55.810Z,18.77
2023-07-25T02:21:22.944Z,15.35
2023-07-25T02:23:51.831Z,18.15
2023-07-25T02:26:21.700Z,18.90
2023-07-25T02:28:48.608Z,20.25
2023-07-25T02:31:15.695Z,19.30
2023-07-25T02:33:45.138Z,22.77
2023-07-25T02:36:15.850Z,18.55
2023-07-25T02:38:45.529Z,18.73
2023-07-25T02:41:12.351Z,18.90
2023-07-25T02:43:39.239Z,21.13
2023-07-25T02:46:39.337Z,18.33
2023-07-25T02:48:56.328Z,14.38
2023-07-25T02:51:25.256Z,16.00
2023-07-25T02:53:51.979Z,15.55
2023-07-25T02:56:24.967Z,16.15
2023-07-25T02:59:03.635Z,20.25
2023-07-25T03:01:33.391Z,16.58
2023-07-25T03:04:00.382Z,18.25
2023-07-25T03:06:27.354Z,15.65
2023-07-25T03:08:54.370Z,15.68
2023-07-25T03:11:25.598Z,15.70
2023-07-25T03:13:58.040Z,18.05
2023-07-25T03:16:32.104Z,13.88
2023-07-25T03:19:01.689Z,18.15
2023-07-25T03:21:40.746Z,18.42
2023-07-25T03:24:09.877Z,19.52
2023-07-25T03:26:41.227Z,16.95
2023-07-25T03:29:19.512Z,16.85
2023-07-25T03:31:57.916Z,15.27
2023-07-25T03:34:27.292Z,14.68
2023-07-25T03:37:01.317Z,14.35
2023-07-25T03:39:36.667Z,12.00
2023-07-25T03:42:03.766Z,15.95
2023-07-25T03:44:30.480Z,14.55
2023-07-25T03:46:57.244Z,18.98
2023-07-25T03:49:37.867Z,11.55
2023-07-25T03:52:10.161Z,14.52
2023-07-25T03:54:39.196Z,17.23
2023-07-25T03:57:06.155Z,11.95
2023-07-25T03:59:32.971Z,14.02
2023-07-25T04:02:17.731Z,15.43
2023-07-25T04:04:44.560Z,14.80
2023-07-25T04:07:22.651Z,14.48
2023-07-25T04:10:14.849Z,15.45
2023-07-25T04:12:39.564Z,11.90
2023-07-25T04:15:21.909Z,17.10
2023-07-25T04:17:57.865Z,16.02
2023-07-25T04:20:26.033Z,17.50
2023-07-25T04:23:02.775Z,17.08
2023-07-25T04:25:33.093Z,17.25
2023-07-25T04:28:03.052Z,15.00
2023-07-25T04:30:32.448Z,18.10
2023-07-25T04:32:59.469Z,11.88
2023-07-25T04:35:26.542Z,13.07
2023-07-25T04:37:56.102Z,13.98
2023-07-25T04:40:35.092Z,16.48
2023-07-25T04:43:02.286Z,19.33
2023-07-25T04:45:31.282Z,12.32
2023-07-25T04:48:00.826Z,10.70
2023-07-25T04:50:36.801Z,14.35
2023-07-25T04:53:07.509Z,14.65
2023-07-25T04:55:37.060Z,12.38
2023-07-25T04:58:03.937Z,17.00
2023-07-25T05:00:34.592Z,10.40
2023-07-25T05:03:09.500Z,12.90
2023-07-25T05:05:40.940Z,10.70
2023-07-25T05:08:12.081Z,12.27
2023-07-25T05:10:41.148Z,13.52
2023-07-25T05:13:07.961Z,12.85
2023-07-25T05:15:34.850Z,14.15
2023-07-25T05:18:05.256Z,10.98
2023-07-25T05:20:32.381Z,12.80
2023-07-25T05:23:01.244Z,8.80
2023-07-25T05:25:36.903Z,9.20
2023-07-25T05:28:05.166Z,11.00
2023-07-25T05:30:39.039Z,9.23
2023-07-25T05:33:12.794Z,8.85
2023-07-25T05:35:50.182Z,9.88
2023-07-25T05:38:20.044Z,7.32
2023-07-25T05:40:46.919Z,8.63
2023-07-25T05:43:16.516Z,8.68
2023-07-25T05:45:51.108Z,8.70
2023-07-25T05:48:24.029Z,7.85
2023-07-25T05:50:54.275Z,7.53
2023-07-25T05:53:21.224Z,6.70
2023-07-25T05:55:53.307Z,5.97
2023-07-25T05:58:21.377Z,7.38
2023-07-25T06:00:51.488Z,7.47
2023-07-25T06:03:21.509Z,6.00
2023-07-25T06:05:48.867Z,8.90
2023-07-25T06:08:23.258Z,6.70
2023-07-25T06:10:56.076Z,6.28
2023-07-25T06:13:30.943Z,5.10
2023-07-25T06:16:03.573Z,4.90
2023-07-25T06:19:04.057Z,5.20
2023-07-25T06:21:21.121Z,7.32
2023-07-25T06:23:48.238Z,4.35
2023-07-25T06:26:18.865Z,6.78
2023-07-25T06:28:48.807Z,4.07
2023-07-25T06:31:25.330Z,5.40
2023-07-25T06:33:59.765Z,3.67
2023-07-25T06:36:28.922Z,6.47
2023-07-25T06:39:00.566Z,7.22
2023-07-25T06:41:34.008Z,4.72
2023-07-25T06:44:04.924Z,6.30
2023-07-25T06:46:45.202Z,4.22
2023-07-25T06:49:17.016Z,6.47
2023-07-25T06:51:46.193Z,4.30
2023-07-25T06:54:29.883Z,5.25
2023-07-25T06:56:59.515Z,5.38
2023-07-25T06:59:27.548Z,5.03
2023-07-25T07:01:58.731Z,6.07
2023-07-25T07:04:31.046Z,7.53
2023-07-25T07:07:00.398Z,5.47
2023-07-25T07:09:30.068Z,5.25
2023-07-25T07:12:04.299Z,3.70
2023-07-25T07:14:38.195Z,5.57
2023-07-25T07:17:05.204Z,4.03
2023-07-25T07:20:01.927Z,4.80
2023-07-25T07:22:29.283Z,5.88
2023-07-25T07:25:09.794Z,6.15
2023-07-25T07:27:36.635Z,5.68
2023-07-25T07:30:11.717Z,4.70
2023-07-25T07:32:40.917Z,5.45
2023-07-25T07:35:10.096Z,5.53
2023-07-25T07:37:45.316Z,4.15
2023-07-25T07:40:12.630Z,4.55
2023-07-25T07:42:39.451Z,4.93
2023-07-25T07:45:06.974Z,4.57
2023-07-25T07:47:44.670Z,5.70
2023-07-25T07:50:16.504Z,3.08
2023-07-25T07:52:44.150Z,3.40
2023-07-25T07:55:20.573Z,6.18
2023-07-25T07:57:50.512Z,3.67
2023-07-25T08:00:19.766Z,5.65
2023-07-25T08:02:56.441Z,5.30
2023-07-25T08:05:23.546Z,3.67
2023-07-25T08:07:56.022Z,2.58
2023-07-25T08:13:15.390Z,3.67
2023-07-25T08:15:49.574Z,2.30
2023-07-25T08:18:19.111Z,2.40
2023-07-25T08:20:49.693Z,4.53
2023-07-25T08:23:21.592Z,2.13
2023-07-25T08:25:51.230Z,2.78
2023-07-25T08:28:21.613Z,3.08
2023-07-25T08:31:16.533Z,1.55
2023-07-25T08:33:45.807Z,1.83
2023-07-25T08:36:22.647Z,2.05
2023-07-25T08:38:49.703Z,2.08
2023-07-25T08:41:31.770Z,1.52
2023-07-25T08:44:04.524Z,3.85
2023-07-25T08:46:34.231Z,1.95
2023-07-25T08:49:09.136Z,1.70
2023-07-25T08:51:45.260Z,1.92
2023-07-25T08:54:26.585Z,0.90
2023-07-25T08:57:04.704Z,1.95
2023-07-25T08:59:42.718Z,2.90
2023-07-25T09:02:32.839Z,1.20
2023-07-25T09:05:07.304Z,1.30
2023-07-25T09:07:37.406Z,3.05
2023-07-25T09:10:05.704Z,1.63
2023-07-25T09:12:34.473Z,2.25
2023-07-25T09:15:03.868Z,2.28
2023-07-25T09:17:47.932Z,1.73
2023-07-25T09:20:20.721Z,1.15
2023-07-25T09:22:53.264Z,1.85
2023-07-25T09:25:35.969Z,2.42
2023-07-25T09:28:21.319Z,3.28
2023-07-25T09:30:55.073Z,2.10
2023-07-25T09:33:38.408Z,1.75
2023-07-25T09:36:11.033Z,2.40
2023-07-25T09:38:49.098Z,0.90
2023-07-25T09:41:22.824Z,2.13
2023-07-25T09:44:04.348Z,1.48
2023-07-25T09:46:33.926Z,2.17
2023-07-25T09:49:21.107Z,1.73
2023-07-25T09:52:11.104Z,1.40
2023-07-25T09:54:46.836Z,1.80
2023-07-25T09:57:19.407Z,2.50
2023-07-25T09:59:57.848Z,2.80
2023-07-25T10:02:27.419Z,3.85
2023-07-25T10:04:58.201Z,3.70
2023-07-25T10:07:27.666Z,4.00
2023-07-25T10:10:25.251Z,3.22
2023-07-25T10:13:01.937Z,1.35
2023-07-25T10:15:42.185Z,2.92
2023-07-25T10:18:31.675Z,3.92
2023-07-25T10:21:01.602Z,4.50
2023-07-25T10:23:36.207Z,2.75
2023-07-25T10:26:39.943Z,5.32
2023-07-25T10:30:02.205Z,5.57
2023-07-25T10:36:01.438Z,4.70
2023-07-25T10:41:42.786Z,4.88
2023-07-25T10:41:50.386Z,4.40
2023-07-25T10:44:38.521Z,6.40
2023-07-25T10:47:54.060Z,4.05
2023-07-25T10:50:54.922Z,5.78
2023-07-25T10:53:29.881Z,2.30
2023-07-25T10:56:18.929Z,4.28
2023-07-25T10:59:10.712Z,2.42
2023-07-25T11:01:56.468Z,3.35
2023-07-25T11:04:36.107Z,4.00
2023-07-25T11:07:13.759Z,4.22
2023-07-25T11:10:02.590Z,7.63
2023-07-25T11:12:58.913Z,3.72
2023-07-25T11:18:06.404Z,2.90
2023-07-25T11:20:46.342Z,5.68
2023-07-25T11:23:35.748Z,4.63
2023-07-25T11:26:33.300Z,4.43
2023-07-25T11:29:08.629Z,3.63
2023-07-25T11:31:47.655Z,3.45
2023-07-25T11:34:51.166Z,5.05
2023-07-25T11:40:42.262Z,2.72
2023-07-25T11:43:39.006Z,2.17
2023-07-25T11:46:16.575Z,3.58
2023-07-25T11:49:51.286Z,2.78
2023-07-25T11:52:11.740Z,2.28
2023-07-25T11:54:46.555Z,2.50
2023-07-25T11:57:43.798Z,4.10
2023-07-25T12:00:43.971Z,3.20
2023-07-25T12:03:32.875Z,2.10
2023-07-25T12:06:07.625Z,2.22
2023-07-25T12:09:01.760Z,2.67
2023-07-25T12:11:46.002Z,2.15
2023-07-25T12:14:30.938Z,4.10
2023-07-25T12:17:39.732Z,2.75
2023-07-25T12:20:57.205Z,2.22
2023-07-25T12:23:39.370Z,2.53
2023-07-25T12:26:08.939Z,2.03
2023-07-25T12:28:44.052Z,1.92
2023-07-25T12:31:11.945Z,2.05
2023-07-25T12:33:39.749Z,2.53
2023-07-25T12:36:07.024Z,1.77
2023-07-25T12:38:34.059Z,2.83
2023-07-25T12:41:00.772Z,1.58
2023-07-25T12:43:27.379Z,3.20
2023-07-25T12:45:54.025Z,1.70
2023-07-25T12:48:20.704Z,3.38
2023-07-25T12:50:47.387Z,2.22
2023-07-25T12:53:14.014Z,3.50
2023-07-25T12:55:40.643Z,1.75
2023-07-25T12:58:07.398Z,2.53
2023-07-25T13:00:34.517Z,1.70
2023-07-25T13:03:01.368Z,3.33
2023-07-25T13:05:31.003Z,3.60
2023-07-25T13:07:58.767Z,2.38
2023-07-25T13:10:26.088Z,1.70
2023-07-25T13:12:52.869Z,3.55
2023-07-25T13:15:19.569Z,2.25
2023-07-25T13:17:46.336Z,2.10
2023-07-25T13:20:13.073Z,2.70
2023-07-25T13:22:39.698Z,3.13
2023-07-25T13:25:06.526Z,2.78
2023-07-25T13:27:33.453Z,1.83
2023-07-25T13:30:00.442Z,3.40
2023-07-25T13:32:27.256Z,3.03
2023-07-25T13:34:53.926Z,2.72
2023-07-25T13:37:20.791Z,2.20
2023-07-25T13:39:47.446Z,2.50
2023-07-25T13:42:14.119Z,1.75
2023-07-25T13:44:40.780Z,0.63
2023-07-25T13:47:07.497Z,4.70
2023-07-25T13:49:34.317Z,3.28
2023-07-25T13:52:03.644Z,5.25
2023-07-25T13:54:31.691Z,2.60
2023-07-25T13:56:58.583Z,2.50
2023-07-25T13:59:25.209Z,1.58
2023-07-25T14:01:52.050Z,5.53
2023-07-25T14:04:19.213Z,2.60
2023-07-25T14:06:48.124Z,3.55
2023-07-25T14:09:14.758Z,3.08
2023-07-25T14:11:41.440Z,2.90
2023-07-25T14:14:08.092Z,3.75
2023-07-25T14:16:34.774Z,1.40
2023-07-25T14:19:01.380Z,2.92
2023-07-25T14:21:28.031Z,2.55
2023-07-25T14:23:54.643Z,1.85
2023-07-25T14:26:21.463Z,4.03
2023-07-25T14:28:48.140Z,2.88
2023-07-25T14:31:14.906Z,2.47
2023-07-25T14:33:41.603Z,4.00
2023-07-25T14:36:08.230Z,3.78
2023-07-25T14:38:34.822Z,3.58
2023-07-25T14:41:01.437Z,4.70
2023-07-25T14:43:28.505Z,1.63
2023-07-25T14:45:55.724Z,2.97
2023-07-25T14:48:22.689Z,2.15
2023-07-25T14:50:49.461Z,4.03
2023-07-25T14:53:16.134Z,5.50
2023-07-25T14:55:42.763Z,2.53
2023-07-25T14:58:09.923Z,2.28
2023-07-25T15:00:36.625Z,2.45
2023-07-25T15:03:05.017Z,4.78
2023-07-25T15:05:31.978Z,3.20
2023-07-25T15:07:58.560Z,1.60
2023-07-25T15:10:25.235Z,1.88
2023-07-25T15:12:51.908Z,1.67
2023-07-25T15:15:20.760Z,2.38
2023-07-25T15:17:47.441Z,1.35
2023-07-25T15:20:14.136Z,1.95
2023-07-25T15:22:41.037Z,3.28
2023-07-25T15:25:07.963Z,1.52
2023-07-25T15:27:35.076Z,4.88
2023-07-25T15:30:01.868Z,3.15
2023-07-25T15:32:28.659Z,2.35
2023-07-25T15:34:56.451Z,2.85
2023-07-25T15:37:23.116Z,3.08
2023-07-25T15:39:49.700Z,1.60
2023-07-25T15:42:16.397Z,2.78
2023-07-25T15:44:42.995Z,3.13
2023-07-25T15:47:09.639Z,5.25
2023-07-25T15:49:36.230Z,3.22
2023-07-25T15:52:03.286Z,1.90
2023-07-25T15:54:30.857Z,3.80
2023-07-25T15:56:57.478Z,3.20
2023-07-25T15:59:25.249Z,3.22
2023-07-25T16:01:54.021Z,1.73
2023-07-25T16:04:21.047Z,1.50
2023-07-25T16:06:48.116Z,1.75
2023-07-25T16:09:15.120Z,3.47
2023-07-25T16:11:41.843Z,2.92
2023-07-25T16:14:08.554Z,3.58
2023-07-25T16:16:35.506Z,2.58
2023-07-25T16:19:02.153Z,2.20
2023-07-25T16:21:31.143Z,2.00
2023-07-25T16:23:58.063Z,2.65
2023-07-25T16:26:24.715Z,4.78
2023-07-25T16:28:52.492Z,3.33
2023-07-25T16:31:43.430Z,2.22
2023-07-25T16:34:06.245Z,1.85
2023-07-25T16:36:33.382Z,3.35
2023-07-25T16:39:00.198Z,2.97
2023-07-25T16:41:26.864Z,4.45
2023-07-25T16:43:53.638Z,1.48
2023-07-25T16:46:20.355Z,2.70
2023-07-25T16:48:47.032Z,2.00
2023-07-25T16:51:13.693Z,3.25
2023-07-25T16:53:40.426Z,5.00
2023-07-25T16:56:07.072Z,3.38
2023-07-25T16:58:34.548Z,4.10
2023-07-25T17:01:01.257Z,3.55
2023-07-25T17:03:28.032Z,2.80
2023-07-25T17:05:54.771Z,2.72
2023-07-25T17:08:21.567Z,3.53
2023-07-25T17:10:48.308Z,6.03
2023-07-25T17:13:15.986Z,4.00
2023-07-25T17:15:43.917Z,2.50
2023-07-25T17:18:10.947Z,5.72
2023-07-25T17:20:37.688Z,7.53
2023-07-25T17:23:05.540Z,3.55
2023-07-25T17:25:32.488Z,3.20
2023-07-25T17:27:59.123Z,3.60
2023-07-25T17:30:25.808Z,4.15
2023-07-25T17:32:53.045Z,3.15
2023-07-25T17:35:31.518Z,5.78
2023-07-25T17:38:02.746Z,3.05
2023-07-25T17:40:30.240Z,3.72
2023-07-25T17:42:56.824Z,4.13
2023-07-25T17:45:23.408Z,3.70
2023-07-25T17:47:50.117Z,3.35
2023-07-25T17:50:16.832Z,4.72
2023-07-25T17:52:43.544Z,3.60
2023-07-25T17:55:10.302Z,3.42
2023-07-25T17:57:36.917Z,5.00
2023-07-25T18:00:04.272Z,2.80
2023-07-25T18:02:30.951Z,4.60
2023-07-25T18:04:57.616Z,4.65
2023-07-25T18:07:24.226Z,3.25
2023-07-25T18:09:50.864Z,5.35
2023-07-25T18:12:17.484Z,7.50
2023-07-25T18:14:44.102Z,4.00
2023-07-25T18:17:10.697Z,5.47
2023-07-25T18:19:37.343Z,6.35
2023-07-25T18:22:04.188Z,3.25
2023-07-25T18:24:30.813Z,4.45
2023-07-25T18:26:57.511Z,4.70
2023-07-25T18:29:24.133Z,5.30
2023-07-25T18:31:50.785Z,3.80
2023-07-25T18:34:17.902Z,2.85
2023-07-25T18:36:44.622Z,4.45
2023-07-25T18:39:14.774Z,4.70
2023-07-25T18:41:41.596Z,4.10
2023-07-25T18:44:08.241Z,5.80
2023-07-25T18:46:35.113Z,3.40
2023-07-25T18:49:02.089Z,2.58
2023-07-25T18:51:28.813Z,6.18
2023-07-25T18:53:55.462Z,3.55
2023-07-25T18:56:22.080Z,2.22
2023-07-25T18:58:48.673Z,5.85
2023-07-25T19:01:17.231Z,3.03
2023-07-25T19:03:43.938Z,4.97
2023-07-25T19:06:10.710Z,4.57
2023-07-25T19:08:37.449Z,4.43
2023-07-25T19:11:04.282Z,5.40
2023-07-25T19:13:30.898Z,4.35
2023-07-25T19:15:57.519Z,6.10
2023-07-25T19:18:24.181Z,3.63
2023-07-25T19:20:50.820Z,3.60
2023-07-25T19:23:26.172Z,5.55
2023-07-25T19:26:01.499Z,4.53
2023-07-25T19:28:29.044Z,4.60
2023-07-25T19:30:56.844Z,4.03
2023-07-25T19:33:23.803Z,5.38
2023-07-25T19:35:55.750Z,3.00
2023-07-25T19:38:23.712Z,9.93
2023-07-25T19:40:50.998Z,4.43
2023-07-25T19:43:18.067Z,2.50
2023-07-25T19:45:47.736Z,5.45
2023-07-25T19:48:15.939Z,3.08
2023-07-25T19:50:46.273Z,3.30
2023-07-25T19:53:13.868Z,4.72
2023-07-25T19:55:40.708Z,3.17
2023-07-25T19:58:07.524Z,2.92
2023-07-25T20:00:34.166Z,4.30
2023-07-25T20:03:01.008Z,3.63
2023-07-25T20:05:27.793Z,4.55
2023-07-25T20:07:54.522Z,4.70
2023-07-25T20:10:21.201Z,3.63
2023-07-25T20:12:48.100Z,4.97
2023-07-25T20:15:16.728Z,3.33
2023-07-25T20:17:44.898Z,4.47
2023-07-25T20:20:11.865Z,7.85
2023-07-25T20:22:38.484Z,4.30
2023-07-25T20:25:05.313Z,5.35
2023-07-25T20:27:31.933Z,4.68
2023-07-25T20:29:58.546Z,3.92
2023-07-25T20:32:25.198Z,3.25
2023-07-25T20:34:51.860Z,4.95
2023-07-25T20:37:18.502Z,4.03
2023-07-25T20:39:45.271Z,5.38
2023-07-25T20:42:11.879Z,5.15
2023-07-25T20:44:38.522Z,3.10
2023-07-25T20:47:05.218Z,4.47
2023-07-25T20:49:31.884Z,4.72
2023-07-25T20:51:59.231Z,4.60
2023-07-25T20:54:25.873Z,4.47
2023-07-25T20:56:52.545Z,5.05
2023-07-25T20:59:19.295Z,3.72
2023-07-25T21:01:45.993Z,3.22
2023-07-25T21:04:12.642Z,3.97
2023-07-25T21:06:39.310Z,3.20
2023-07-25T21:09:05.935Z,5.80
2023-07-25T21:11:32.580Z,6.57
2023-07-25T21:13:59.209Z,3.63
2023-07-25T21:16:26.078Z,2.50
2023-07-25T21:18:52.770Z,3.80
2023-07-25T21:21:19.539Z,2.67
2023-07-25T21:23:46.228Z,7.57
2023-07-25T21:26:12.854Z,2.25
2023-07-25T21:28:39.595Z,2.75
2023-07-25T21:31:11.775Z,3.95
2023-07-25T21:33:38.562Z,2.72
2023-07-25T21:36:14.316Z,4.70
2023-07-25T21:38:42.027Z,3.20
2023-07-25T21:41:16.270Z,4.07
2023-07-25T21:43:43.239Z,2.75
2023-07-25T21:46:10.432Z,3.13
2023-07-25T21:48:37.347Z,2.55
2023-07-25T21:51:04.225Z,5.35
2023-07-25T21:53:31.559Z,3.88
2023-07-25T21:55:58.751Z,3.67
2023-07-25T21:58:26.956Z,4.00
2023-07-25T22:00:57.567Z,2.92
2023-07-25T22:03:24.753Z,4.43
2023-07-25T22:05:51.782Z,2.67
2023-07-25T22:08:18.448Z,3.58
2023-07-25T22:10:45.118Z,2.95
2023-07-25T22:13:13.535Z,2.85
2023-07-25T22:15:41.350Z,5.03
2023-07-25T22:18:08.743Z,2.03
2023-07-25T22:20:49.677Z,4.72
2023-07-25T22:23:18.808Z,3.53
2023-07-25T22:25:45.709Z,4.10
2023-07-25T22:28:12.379Z,2.58
2023-07-25T22:30:39.073Z,5.03
2023-07-25T22:33:05.852Z,6.57
2023-07-25T22:35:32.630Z,2.97
2023-07-25T22:38:01.052Z,5.05
2023-07-25T22:40:28.052Z,2.83
2023-07-25T22:42:54.743Z,2.92
2023-07-25T22:45:21.765Z,6.03
2023-07-25T22:47:48.521Z,1.48
2023-07-25T22:50:15.246Z,3.60
2023-07-25T22:52:44.186Z,5.38
2023-07-25T22:55:18.754Z,4.35
2023-07-25T22:57:45.840Z,5.70
2023-07-25T23:00:12.994Z,5.03
2023-07-25T23:02:39.733Z,2.35
2023-07-25T23:05:06.964Z,4.18
2023-07-25T23:07:33.664Z,4.90
2023-07-25T23:10:00.530Z,4.88
2023-07-25T23:12:27.192Z,4.10
2023-07-25T23:14:54.007Z,3.58
2023-07-25T23:17:20.617Z,5.88
2023-07-25T23:19:47.297Z,3.38
2023-07-25T23:22:13.937Z,3.92
2023-07-25T23:24:40.890Z,5.05
2023-07-25T23:27:07.928Z,6.10
2023-07-25T23:29:36.118Z,3.63
2023-07-25T23:32:02.831Z,3.30
2023-07-25T23:34:42.899Z,4.50
2023-07-25T23:37:10.899Z,2.55
2023-07-25T23:39:38.121Z,3.20
2023-07-25T23:42:06.015Z,2.38
2023-07-25T23:44:34.251Z,5.18
2023-07-25T23:47:01.434Z,3.65
2023-07-25T23:49:28.097Z,5.50
2023-07-25T23:51:54.732Z,3.45
2023-07-25T23:54:21.373Z,6.20
2023-07-25T23:56:48.093Z,5.15
2023-07-25T23:59:14.689Z,4.78
